sensor_id;sensor_type;location;lat;lon;timestamp;P1;durP1;ratioP1;P2;durP2;ratioP2
51272;SDS011;37345;59.828;30.328;2022-07-21T00:02:20;3.40;;;1.30;;
51272;SDS011;37345;59.828;30.328;2022-07-21T00:04:46;3.70;;;1.25;;
51272;SDS011;37345;59.828;30.328;2022-07-21T00:07:13;2.03;;;1.23;;
51272;SDS011;37345;59.828;30.328;2022-07-21T00:09:39;1.60;;;1.10;;
51272;SDS011;37345;59.828;30.328;2022-07-21T00:12:05;2.90;;;1.10;;
51272;SDS011;37345;59.828;30.328;2022-07-21T00:14:31;2.10;;;1.23;;
51272;SDS011;37345;59.828;30.328;2022-07-21T00:16:58;3.28;;;1.20;;
51272;SDS011;37345;59.828;30.328;2022-07-21T00:19:24;1.98;;;1.00;;
51272;SDS011;37345;59.828;30.328;2022-07-21T00:21:50;2.40;;;1.07;;
51272;SDS011;37345;59.828;30.328;2022-07-21T00:24:16;1.85;;;1.10;;
51272;SDS011;37345;59.828;30.328;2022-07-21T00:26:42;3.67;;;1.30;;
51272;SDS011;37345;59.828;30.328;2022-07-21T00:29:08;2.95;;;1.00;;
51272;SDS011;37345;59.828;30.328;2022-07-21T00:31:35;3.63;;;1.50;;
51272;SDS011;37345;59.828;30.328;2022-07-21T00:34:01;1.40;;;1.10;;
51272;SDS011;37345;59.828;30.328;2022-07-21T00:36:27;2.07;;;1.33;;
51272;SDS011;37345;59.828;30.328;2022-07-21T00:38:53;1.80;;;1.10;;
51272;SDS011;37345;59.828;30.328;2022-07-21T00:41:19;1.80;;;1.02;;
51272;SDS011;37345;59.828;30.328;2022-07-21T00:43:45;3.60;;;1.20;;
51272;SDS011;37345;59.828;30.328;2022-07-21T00:46:12;1.95;;;0.90;;
51272;SDS011;37345;59.828;30.328;2022-07-21T00:48:38;3.70;;;1.30;;
51272;SDS011;37345;59.828;30.328;2022-07-21T00:51:04;2.60;;;1.00;;
51272;SDS011;37345;59.828;30.328;2022-07-21T00:53:30;2.58;;;1.17;;
51272;SDS011;37345;59.828;30.328;2022-07-21T00:55:57;2.72;;;1.00;;
51272;SDS011;37345;59.828;30.328;2022-07-21T00:58:24;2.85;;;1.17;;
51272;SDS011;37345;59.828;30.328;2022-07-21T01:00:50;1.13;;;1.00;;
51272;SDS011;37345;59.828;30.328;2022-07-21T01:03:17;1.73;;;1.20;;
51272;SDS011;37345;59.828;30.328;2022-07-21T01:05:43;2.42;;;1.30;;
51272;SDS011;37345;59.828;30.328;2022-07-21T01:08:09;3.17;;;1.00;;
51272;SDS011;37345;59.828;30.328;2022-07-21T01:10:36;2.03;;;1.10;;
51272;SDS011;37345;59.828;30.328;2022-07-21T01:13:02;1.80;;;1.00;;
51272;SDS011;37345;59.828;30.328;2022-07-21T01:15:28;3.20;;;1.10;;
51272;SDS011;37345;59.828;30.328;2022-07-21T01:17:54;2.35;;;1.30;;
51272;SDS011;37345;59.828;30.328;2022-07-21T01:20:21;3.47;;;1.20;;
51272;SDS011;37345;59.828;30.328;2022-07-21T01:22:49;1.55;;;1.02;;
51272;SDS011;37345;59.828;30.328;2022-07-21T01:25:16;1.52;;;1.08;;
51272;SDS011;37345;59.828;30.328;2022-07-21T01:27:43;2.38;;;1.35;;
51272;SDS011;37345;59.828;30.328;2022-07-21T01:30:09;1.50;;;1.20;;
51272;SDS011;37345;59.828;30.328;2022-07-21T01:32:36;3.40;;;1.45;;
51272;SDS011;37345;59.828;30.328;2022-07-21T01:35:07;2.38;;;1.05;;
51272;SDS011;37345;59.828;30.328;2022-07-21T01:37:34;1.80;;;1.20;;
51272;SDS011;37345;59.828;30.328;2022-07-21T01:40:01;1.73;;;1.27;;
51272;SDS011;37345;59.828;30.328;2022-07-21T01:42:46;1.38;;;1.10;;
51272;SDS011;37345;59.828;30.328;2022-07-21T01:45:12;3.35;;;1.30;;
51272;SDS011;37345;59.828;30.328;2022-07-21T01:47:38;4.03;;;1.13;;
51272;SDS011;37345;59.828;30.328;2022-07-21T01:50:06;1.95;;;1.10;;
51272;SDS011;37345;59.828;30.328;2022-07-21T01:52:32;1.92;;;1.20;;
51272;SDS011;37345;59.828;30.328;2022-07-21T01:54:58;2.80;;;1.50;;
51272;SDS011;37345;59.828;30.328;2022-07-21T01:57:24;2.83;;;1.20;;
51272;SDS011;37345;59.828;30.328;2022-07-21T01:59:50;2.40;;;1.60;;
51272;SDS011;37345;59.828;30.328;2022-07-21T02:02:16;3.05;;;1.60;;
51272;SDS011;37345;59.828;30.328;2022-07-21T02:04:46;6.10;;;1.90;;
51272;SDS011;37345;59.828;30.328;2022-07-21T02:07:13;3.55;;;1.73;;
51272;SDS011;37345;59.828;30.328;2022-07-21T02:09:39;2.87;;;1.70;;
51272;SDS011;37345;59.828;30.328;2022-07-21T02:12:05;4.63;;;1.75;;
51272;SDS011;37345;59.828;30.328;2022-07-21T02:14:31;6.05;;;1.98;;
51272;SDS011;37345;59.828;30.328;2022-07-21T02:16:58;3.67;;;1.77;;
51272;SDS011;37345;59.828;30.328;2022-07-21T02:19:24;5.40;;;2.35;;
51272;SDS011;37345;59.828;30.328;2022-07-21T02:21:50;3.22;;;1.60;;
51272;SDS011;37345;59.828;30.328;2022-07-21T02:24:16;3.38;;;1.77;;
51272;SDS011;37345;59.828;30.328;2022-07-21T02:26:42;3.63;;;1.77;;
51272;SDS011;37345;59.828;30.328;2022-07-21T02:29:08;5.63;;;2.00;;
51272;SDS011;37345;59.828;30.328;2022-07-21T02:31:35;5.93;;;2.10;;
51272;SDS011;37345;59.828;30.328;2022-07-21T02:34:01;2.45;;;1.90;;
51272;SDS011;37345;59.828;30.328;2022-07-21T02:36:27;4.07;;;1.80;;
51272;SDS011;37345;59.828;30.328;2022-07-21T02:38:53;5.15;;;2.20;;
51272;SDS011;37345;59.828;30.328;2022-07-21T02:41:20;5.90;;;2.20;;
51272;SDS011;37345;59.828;30.328;2022-07-21T02:43:45;4.43;;;2.27;;
51272;SDS011;37345;59.828;30.328;2022-07-21T02:46:11;3.33;;;1.83;;
51272;SDS011;37345;59.828;30.328;2022-07-21T02:48:37;4.00;;;2.22;;
51272;SDS011;37345;59.828;30.328;2022-07-21T02:51:03;3.93;;;1.93;;
51272;SDS011;37345;59.828;30.328;2022-07-21T02:53:29;3.17;;;1.83;;
51272;SDS011;37345;59.828;30.328;2022-07-21T02:55:55;5.35;;;1.80;;
51272;SDS011;37345;59.828;30.328;2022-07-21T02:58:22;3.63;;;2.07;;
51272;SDS011;37345;59.828;30.328;2022-07-21T03:00:53;4.87;;;1.80;;
51272;SDS011;37345;59.828;30.328;2022-07-21T03:03:21;5.45;;;1.98;;
51272;SDS011;37345;59.828;30.328;2022-07-21T03:05:48;3.00;;;1.70;;
51272;SDS011;37345;59.828;30.328;2022-07-21T03:08:15;1.88;;;1.52;;
51272;SDS011;37345;59.828;30.328;2022-07-21T03:10:41;2.63;;;1.90;;
51272;SDS011;37345;59.828;30.328;2022-07-21T03:13:07;3.10;;;1.90;;
51272;SDS011;37345;59.828;30.328;2022-07-21T03:15:33;7.45;;;1.80;;
51272;SDS011;37345;59.828;30.328;2022-07-21T03:17:59;4.22;;;1.70;;
51272;SDS011;37345;59.828;30.328;2022-07-21T03:20:26;3.47;;;2.00;;
51272;SDS011;37345;59.828;30.328;2022-07-21T03:22:53;5.13;;;3.40;;
51272;SDS011;37345;59.828;30.328;2022-07-21T03:25:19;12.03;;;4.57;;
51272;SDS011;37345;59.828;30.328;2022-07-21T03:27:46;9.77;;;5.30;;
51272;SDS011;37345;59.828;30.328;2022-07-21T03:30:13;12.13;;;5.43;;
51272;SDS011;37345;59.828;30.328;2022-07-21T03:32:39;8.48;;;4.93;;
51272;SDS011;37345;59.828;30.328;2022-07-21T03:35:06;8.65;;;4.07;;
51272;SDS011;37345;59.828;30.328;2022-07-21T03:37:39;6.45;;;3.83;;
51272;SDS011;37345;59.828;30.328;2022-07-21T03:40:13;8.15;;;3.97;;
51272;SDS011;37345;59.828;30.328;2022-07-21T03:42:44;6.38;;;3.50;;
51272;SDS011;37345;59.828;30.328;2022-07-21T03:45:10;6.88;;;3.25;;
51272;SDS011;37345;59.828;30.328;2022-07-21T03:47:48;6.70;;;2.65;;
51272;SDS011;37345;59.828;30.328;2022-07-21T03:50:20;4.82;;;3.17;;
51272;SDS011;37345;59.828;30.328;2022-07-21T03:52:48;6.43;;;2.70;;
51272;SDS011;37345;59.828;30.328;2022-07-21T03:55:14;5.43;;;2.80;;
51272;SDS011;37345;59.828;30.328;2022-07-21T03:57:49;11.38;;;4.28;;
51272;SDS011;37345;59.828;30.328;2022-07-21T04:00:22;5.57;;;2.63;;
51272;SDS011;37345;59.828;30.328;2022-07-21T04:02:52;5.75;;;2.67;;
51272;SDS011;37345;59.828;30.328;2022-07-21T04:05:19;3.65;;;2.50;;
51272;SDS011;37345;59.828;30.328;2022-07-21T04:07:46;9.13;;;3.20;;
51272;SDS011;37345;59.828;30.328;2022-07-21T04:10:13;6.10;;;2.90;;
51272;SDS011;37345;59.828;30.328;2022-07-21T04:12:41;5.65;;;3.17;;
51272;SDS011;37345;59.828;30.328;2022-07-21T04:15:08;6.38;;;3.55;;
51272;SDS011;37345;59.828;30.328;2022-07-21T04:17:35;4.63;;;3.13;;
51272;SDS011;37345;59.828;30.328;2022-07-21T04:20:02;5.72;;;2.90;;
51272;SDS011;37345;59.828;30.328;2022-07-21T04:22:29;8.33;;;3.30;;
51272;SDS011;37345;59.828;30.328;2022-07-21T04:24:54;4.75;;;3.28;;
51272;SDS011;37345;59.828;30.328;2022-07-21T04:27:20;6.55;;;3.30;;
51272;SDS011;37345;59.828;30.328;2022-07-21T04:29:46;6.53;;;3.00;;
51272;SDS011;37345;59.828;30.328;2022-07-21T04:32:12;6.00;;;3.77;;
51272;SDS011;37345;59.828;30.328;2022-07-21T04:34:38;6.93;;;3.30;;
51272;SDS011;37345;59.828;30.328;2022-07-21T04:37:04;5.57;;;2.97;;
51272;SDS011;37345;59.828;30.328;2022-07-21T04:39:30;4.13;;;2.87;;
51272;SDS011;37345;59.828;30.328;2022-07-21T04:41:56;5.28;;;2.70;;
51272;SDS011;37345;59.828;30.328;2022-07-21T04:44:22;6.40;;;2.60;;
51272;SDS011;37345;59.828;30.328;2022-07-21T04:46:48;5.53;;;3.10;;
51272;SDS011;37345;59.828;30.328;2022-07-21T04:49:14;2.88;;;2.53;;
51272;SDS011;37345;59.828;30.328;2022-07-21T04:51:40;3.13;;;2.80;;
51272;SDS011;37345;59.828;30.328;2022-07-21T04:54:06;3.90;;;2.70;;
51272;SDS011;37345;59.828;30.328;2022-07-21T04:56:32;5.00;;;3.20;;
51272;SDS011;37345;59.828;30.328;2022-07-21T04:58:59;4.07;;;3.27;;
51272;SDS011;37345;59.828;30.328;2022-07-21T05:01:26;4.05;;;2.78;;
51272;SDS011;37345;59.828;30.328;2022-07-21T05:03:53;4.20;;;2.67;;
51272;SDS011;37345;59.828;30.328;2022-07-21T05:06:18;5.77;;;3.00;;
51272;SDS011;37345;59.828;30.328;2022-07-21T05:08:44;3.28;;;2.83;;
51272;SDS011;37345;59.828;30.328;2022-07-21T05:11:10;3.47;;;2.95;;
51272;SDS011;37345;59.828;30.328;2022-07-21T05:13:36;3.55;;;2.80;;
51272;SDS011;37345;59.828;30.328;2022-07-21T05:16:02;4.40;;;2.78;;
51272;SDS011;37345;59.828;30.328;2022-07-21T05:18:27;4.20;;;3.13;;
51272;SDS011;37345;59.828;30.328;2022-07-21T05:20:53;4.35;;;2.72;;
51272;SDS011;37345;59.828;30.328;2022-07-21T05:23:19;3.25;;;2.95;;
51272;SDS011;37345;59.828;30.328;2022-07-21T05:25:45;3.27;;;2.90;;
51272;SDS011;37345;59.828;30.328;2022-07-21T05:28:11;4.40;;;3.10;;
51272;SDS011;37345;59.828;30.328;2022-07-21T05:30:37;5.17;;;3.53;;
51272;SDS011;37345;59.828;30.328;2022-07-21T05:33:02;5.47;;;3.90;;
51272;SDS011;37345;59.828;30.328;2022-07-21T05:35:29;5.32;;;3.38;;
51272;SDS011;37345;59.828;30.328;2022-07-21T05:37:55;4.95;;;3.42;;
51272;SDS011;37345;59.828;30.328;2022-07-21T05:40:21;5.00;;;3.83;;
51272;SDS011;37345;59.828;30.328;2022-07-21T05:42:47;3.63;;;3.33;;
51272;SDS011;37345;59.828;30.328;2022-07-21T05:45:14;3.58;;;3.28;;
51272;SDS011;37345;59.828;30.328;2022-07-21T05:47:40;4.63;;;3.53;;
51272;SDS011;37345;59.828;30.328;2022-07-21T05:50:07;10.77;;;4.23;;
51272;SDS011;37345;59.828;30.328;2022-07-21T05:52:33;6.18;;;3.42;;
51272;SDS011;37345;59.828;30.328;2022-07-21T05:54:59;5.25;;;3.58;;
51272;SDS011;37345;59.828;30.328;2022-07-21T05:57:25;7.65;;;3.67;;
51272;SDS011;37345;59.828;30.328;2022-07-21T05:59:51;8.40;;;3.95;;
51272;SDS011;37345;59.828;30.328;2022-07-21T06:02:18;7.00;;;3.33;;
51272;SDS011;37345;59.828;30.328;2022-07-21T06:04:44;8.25;;;3.70;;
51272;SDS011;37345;59.828;30.328;2022-07-21T06:07:10;6.82;;;3.95;;
51272;SDS011;37345;59.828;30.328;2022-07-21T06:09:36;5.93;;;3.37;;
51272;SDS011;37345;59.828;30.328;2022-07-21T06:12:02;6.30;;;3.10;;
51272;SDS011;37345;59.828;30.328;2022-07-21T06:14:29;4.72;;;3.30;;
51272;SDS011;37345;59.828;30.328;2022-07-21T06:16:55;4.60;;;3.05;;
51272;SDS011;37345;59.828;30.328;2022-07-21T06:19:21;4.80;;;3.07;;
51272;SDS011;37345;59.828;30.328;2022-07-21T06:21:47;4.90;;;2.80;;
51272;SDS011;37345;59.828;30.328;2022-07-21T06:24:13;6.65;;;2.97;;
51272;SDS011;37345;59.828;30.328;2022-07-21T06:26:40;4.22;;;2.88;;
51272;SDS011;37345;59.828;30.328;2022-07-21T06:29:06;4.00;;;3.00;;
51272;SDS011;37345;59.828;30.328;2022-07-21T06:31:33;4.75;;;3.08;;
51272;SDS011;37345;59.828;30.328;2022-07-21T06:33:59;6.90;;;2.95;;
51272;SDS011;37345;59.828;30.328;2022-07-21T06:36:25;6.25;;;3.10;;
51272;SDS011;37345;59.828;30.328;2022-07-21T06:38:51;3.30;;;2.92;;
51272;SDS011;37345;59.828;30.328;2022-07-21T06:41:17;3.90;;;3.22;;
51272;SDS011;37345;59.828;30.328;2022-07-21T06:43:44;4.20;;;3.03;;
51272;SDS011;37345;59.828;30.328;2022-07-21T06:46:10;5.13;;;3.88;;
51272;SDS011;37345;59.828;30.328;2022-07-21T06:48:36;6.50;;;3.80;;
51272;SDS011;37345;59.828;30.328;2022-07-21T06:51:02;5.93;;;4.10;;
51272;SDS011;37345;59.828;30.328;2022-07-21T06:53:27;5.90;;;3.22;;
51272;SDS011;37345;59.828;30.328;2022-07-21T06:55:53;5.50;;;3.67;;
51272;SDS011;37345;59.828;30.328;2022-07-21T06:58:21;7.15;;;3.67;;
51272;SDS011;37345;59.828;30.328;2022-07-21T07:00:51;5.90;;;3.70;;
51272;SDS011;37345;59.828;30.328;2022-07-21T07:03:18;7.32;;;3.13;;
51272;SDS011;37345;59.828;30.328;2022-07-21T07:05:45;6.60;;;3.75;;
51272;SDS011;37345;59.828;30.328;2022-07-21T07:08:12;7.80;;;4.18;;
51272;SDS011;37345;59.828;30.328;2022-07-21T07:10:39;8.23;;;4.28;;
51272;SDS011;37345;59.828;30.328;2022-07-21T07:13:09;7.50;;;4.43;;
51272;SDS011;37345;59.828;30.328;2022-07-21T07:15:36;7.65;;;4.70;;
51272;SDS011;37345;59.828;30.328;2022-07-21T07:18:02;7.13;;;4.13;;
51272;SDS011;37345;59.828;30.328;2022-07-21T07:20:28;9.45;;;4.20;;
51272;SDS011;37345;59.828;30.328;2022-07-21T07:22:57;7.05;;;4.25;;
51272;SDS011;37345;59.828;30.328;2022-07-21T07:25:26;6.55;;;4.63;;
51272;SDS011;37345;59.828;30.328;2022-07-21T07:27:52;5.57;;;4.25;;
51272;SDS011;37345;59.828;30.328;2022-07-21T07:30:20;6.83;;;3.90;;
51272;SDS011;37345;59.828;30.328;2022-07-21T07:32:46;6.63;;;4.20;;
51272;SDS011;37345;59.828;30.328;2022-07-21T07:35:16;6.70;;;4.20;;
51272;SDS011;37345;59.828;30.328;2022-07-21T07:37:43;8.73;;;4.30;;
51272;SDS011;37345;59.828;30.328;2022-07-21T07:40:11;6.83;;;4.47;;
51272;SDS011;37345;59.828;30.328;2022-07-21T07:42:38;10.05;;;4.10;;
51272;SDS011;37345;59.828;30.328;2022-07-21T07:45:04;4.80;;;3.90;;
51272;SDS011;37345;59.828;30.328;2022-07-21T07:47:31;4.43;;;3.88;;
51272;SDS011;37345;59.828;30.328;2022-07-21T07:49:57;7.38;;;4.40;;
51272;SDS011;37345;59.828;30.328;2022-07-21T07:52:24;4.60;;;3.72;;
51272;SDS011;37345;59.828;30.328;2022-07-21T07:54:50;7.00;;;3.87;;
51272;SDS011;37345;59.828;30.328;2022-07-21T07:57:16;5.72;;;3.53;;
51272;SDS011;37345;59.828;30.328;2022-07-21T07:59:42;6.65;;;4.03;;
51272;SDS011;37345;59.828;30.328;2022-07-21T08:02:08;5.75;;;4.00;;
51272;SDS011;37345;59.828;30.328;2022-07-21T08:04:34;6.40;;;4.20;;
51272;SDS011;37345;59.828;30.328;2022-07-21T08:07:00;4.60;;;4.10;;
51272;SDS011;37345;59.828;30.328;2022-07-21T08:09:27;7.07;;;4.10;;
51272;SDS011;37345;59.828;30.328;2022-07-21T08:11:54;5.22;;;3.88;;
51272;SDS011;37345;59.828;30.328;2022-07-21T08:14:20;6.43;;;3.90;;
51272;SDS011;37345;59.828;30.328;2022-07-21T08:16:52;6.10;;;4.22;;
51272;SDS011;37345;59.828;30.328;2022-07-21T08:19:18;5.88;;;4.15;;
51272;SDS011;37345;59.828;30.328;2022-07-21T08:24:19;5.75;;;4.45;;
51272;SDS011;37345;59.828;30.328;2022-07-21T08:26:46;5.70;;;4.45;;
51272;SDS011;37345;59.828;30.328;2022-07-21T08:29:11;7.82;;;4.13;;
51272;SDS011;37345;59.828;30.328;2022-07-21T08:31:37;4.75;;;4.13;;
51272;SDS011;37345;59.828;30.328;2022-07-21T08:34:03;6.07;;;4.13;;
51272;SDS011;37345;59.828;30.328;2022-07-21T08:36:30;5.57;;;3.90;;
51272;SDS011;37345;59.828;30.328;2022-07-21T08:38:56;5.15;;;4.10;;
51272;SDS011;37345;59.828;30.328;2022-07-21T08:41:22;9.30;;;4.35;;
51272;SDS011;37345;59.828;30.328;2022-07-21T08:43:51;8.45;;;3.95;;
51272;SDS011;37345;59.828;30.328;2022-07-21T08:46:18;5.32;;;3.97;;
51272;SDS011;37345;59.828;30.328;2022-07-21T08:48:48;6.22;;;3.67;;
51272;SDS011;37345;59.828;30.328;2022-07-21T08:51:15;7.15;;;4.55;;
51272;SDS011;37345;59.828;30.328;2022-07-21T08:53:45;5.43;;;3.90;;
51272;SDS011;37345;59.828;30.328;2022-07-21T08:56:11;4.70;;;3.73;;
51272;SDS011;37345;59.828;30.328;2022-07-21T08:58:37;4.30;;;3.90;;
51272;SDS011;37345;59.828;30.328;2022-07-21T09:01:03;5.85;;;3.85;;
51272;SDS011;37345;59.828;30.328;2022-07-21T09:03:29;5.43;;;3.70;;
51272;SDS011;37345;59.828;30.328;2022-07-21T09:06:07;6.23;;;3.50;;
51272;SDS011;37345;59.828;30.328;2022-07-21T09:08:43;5.47;;;3.80;;
51272;SDS011;37345;59.828;30.328;2022-07-21T09:16:33;5.53;;;3.40;;
51272;SDS011;37345;59.828;30.328;2022-07-21T09:19:00;6.22;;;3.80;;
51272;SDS011;37345;59.828;30.328;2022-07-21T09:21:26;5.22;;;3.63;;
51272;SDS011;37345;59.828;30.328;2022-07-21T09:23:52;3.92;;;3.33;;
51272;SDS011;37345;59.828;30.328;2022-07-21T09:26:39;6.13;;;3.83;;
51272;SDS011;37345;59.828;30.328;2022-07-21T09:29:21;5.00;;;3.60;;
51272;SDS011;37345;59.828;30.328;2022-07-21T09:31:50;5.43;;;3.85;;
51272;SDS011;37345;59.828;30.328;2022-07-21T09:34:16;4.35;;;3.50;;
51272;SDS011;37345;59.828;30.328;2022-07-21T09:36:55;7.13;;;3.80;;
51272;SDS011;37345;59.828;30.328;2022-07-21T09:42:13;4.20;;;3.80;;
51272;SDS011;37345;59.828;30.328;2022-07-21T09:44:53;4.47;;;3.88;;
51272;SDS011;37345;59.828;30.328;2022-07-21T09:47:21;4.65;;;3.65;;
51272;SDS011;37345;59.828;30.328;2022-07-21T09:49:47;4.15;;;3.60;;
51272;SDS011;37345;59.828;30.328;2022-07-21T09:52:32;7.00;;;3.80;;
51272;SDS011;37345;59.828;30.328;2022-07-21T09:55:06;5.63;;;3.40;;
51272;SDS011;37345;59.828;30.328;2022-07-21T09:57:32;3.93;;;3.60;;
51272;SDS011;37345;59.828;30.328;2022-07-21T09:59:59;6.18;;;3.60;;
51272;SDS011;37345;59.828;30.328;2022-07-21T10:02:28;7.70;;;3.50;;
51272;SDS011;37345;59.828;30.328;2022-07-21T10:05:05;4.80;;;3.33;;
51272;SDS011;37345;59.828;30.328;2022-07-21T10:07:33;7.13;;;3.73;;
51272;SDS011;37345;59.828;30.328;2022-07-21T10:09:59;4.80;;;3.40;;
51272;SDS011;37345;59.828;30.328;2022-07-21T10:12:26;4.10;;;3.38;;
51272;SDS011;37345;59.828;30.328;2022-07-21T10:14:52;4.65;;;3.50;;
51272;SDS011;37345;59.828;30.328;2022-07-21T10:17:19;5.93;;;3.50;;
51272;SDS011;37345;59.828;30.328;2022-07-21T10:22:27;6.35;;;3.83;;
51272;SDS011;37345;59.828;30.328;2022-07-21T10:24:56;4.65;;;3.70;;
51272;SDS011;37345;59.828;30.328;2022-07-21T10:27:23;6.28;;;4.20;;
51272;SDS011;37345;59.828;30.328;2022-07-21T10:29:50;6.82;;;3.75;;
51272;SDS011;37345;59.828;30.328;2022-07-21T10:32:20;5.68;;;3.70;;
51272;SDS011;37345;59.828;30.328;2022-07-21T10:34:47;7.47;;;3.85;;
51272;SDS011;37345;59.828;30.328;2022-07-21T10:37:59;5.18;;;3.45;;
51272;SDS011;37345;59.828;30.328;2022-07-21T10:42:44;4.32;;;3.92;;
51272;SDS011;37345;59.828;30.328;2022-07-21T10:47:55;4.82;;;3.67;;
51272;SDS011;37345;59.828;30.328;2022-07-21T10:50:32;5.95;;;4.05;;
51272;SDS011;37345;59.828;30.328;2022-07-21T10:52:59;7.75;;;4.03;;
51272;SDS011;37345;59.828;30.328;2022-07-21T10:55:26;7.22;;;4.30;;
51272;SDS011;37345;59.828;30.328;2022-07-21T11:00:35;7.10;;;4.03;;
51272;SDS011;37345;59.828;30.328;2022-07-21T11:03:12;6.22;;;4.75;;
51272;SDS011;37345;59.828;30.328;2022-07-21T11:05:41;8.30;;;4.20;;
51272;SDS011;37345;59.828;30.328;2022-07-21T11:08:29;8.13;;;4.00;;
51272;SDS011;37345;59.828;30.328;2022-07-21T11:10:58;7.38;;;4.45;;
51272;SDS011;37345;59.828;30.328;2022-07-21T11:16:21;5.35;;;4.07;;
51272;SDS011;37345;59.828;30.328;2022-07-21T11:18:48;4.85;;;3.92;;
51272;SDS011;37345;59.828;30.328;2022-07-21T11:21:15;5.05;;;3.90;;
51272;SDS011;37345;59.828;30.328;2022-07-21T11:23:45;5.20;;;4.10;;
51272;SDS011;37345;59.828;30.328;2022-07-21T11:26:13;6.53;;;3.65;;
51272;SDS011;37345;59.828;30.328;2022-07-21T11:28:40;7.35;;;4.63;;
51272;SDS011;37345;59.828;30.328;2022-07-21T11:33:58;5.95;;;4.10;;
51272;SDS011;37345;59.828;30.328;2022-07-21T11:36:28;6.10;;;4.18;;
51272;SDS011;37345;59.828;30.328;2022-07-21T11:38:58;5.13;;;4.28;;
51272;SDS011;37345;59.828;30.328;2022-07-21T11:41:24;6.03;;;4.17;;
51272;SDS011;37345;59.828;30.328;2022-07-21T11:43:51;4.93;;;4.05;;
51272;SDS011;37345;59.828;30.328;2022-07-21T11:46:17;6.00;;;4.05;;
51272;SDS011;37345;59.828;30.328;2022-07-21T11:48:43;7.00;;;4.10;;
51272;SDS011;37345;59.828;30.328;2022-07-21T11:51:10;7.13;;;4.40;;
51272;SDS011;37345;59.828;30.328;2022-07-21T11:53:36;5.65;;;4.10;;
51272;SDS011;37345;59.828;30.328;2022-07-21T11:56:15;6.78;;;4.32;;
51272;SDS011;37345;59.828;30.328;2022-07-21T11:58:42;7.85;;;4.22;;
51272;SDS011;37345;59.828;30.328;2022-07-21T12:01:08;5.15;;;4.00;;
51272;SDS011;37345;59.828;30.328;2022-07-21T12:03:34;6.57;;;4.47;;
51272;SDS011;37345;59.828;30.328;2022-07-21T12:06:00;6.38;;;4.22;;
51272;SDS011;37345;59.828;30.328;2022-07-21T12:08:39;6.93;;;4.15;;
51272;SDS011;37345;59.828;30.328;2022-07-21T12:11:06;6.28;;;4.28;;
51272;SDS011;37345;59.828;30.328;2022-07-21T12:13:55;5.18;;;4.00;;
51272;SDS011;37345;59.828;30.328;2022-07-21T12:16:24;4.97;;;4.18;;
51272;SDS011;37345;59.828;30.328;2022-07-21T12:21:49;5.25;;;3.97;;
51272;SDS011;37345;59.828;30.328;2022-07-21T12:24:16;6.00;;;3.90;;
51272;SDS011;37345;59.828;30.328;2022-07-21T12:26:42;6.20;;;3.97;;
51272;SDS011;37345;59.828;30.328;2022-07-21T12:29:09;6.88;;;4.00;;
51272;SDS011;37345;59.828;30.328;2022-07-21T12:31:35;5.25;;;3.97;;
51272;SDS011;37345;59.828;30.328;2022-07-21T12:34:18;5.73;;;3.77;;
51272;SDS011;37345;59.828;30.328;2022-07-21T12:39:40;5.30;;;3.95;;
51272;SDS011;37345;59.828;30.328;2022-07-21T12:42:33;6.72;;;3.90;;
51272;SDS011;37345;59.828;30.328;2022-07-21T12:45:19;6.28;;;4.30;;
51272;SDS011;37345;59.828;30.328;2022-07-21T12:50:32;6.55;;;4.10;;
51272;SDS011;37345;59.828;30.328;2022-07-21T12:52:58;7.40;;;4.70;;
51272;SDS011;37345;59.828;30.328;2022-07-21T12:55:24;6.20;;;3.97;;
51272;SDS011;37345;59.828;30.328;2022-07-21T12:57:50;6.38;;;4.60;;
51272;SDS011;37345;59.828;30.328;2022-07-21T13:00:19;6.93;;;4.73;;
51272;SDS011;37345;59.828;30.328;2022-07-21T13:02:50;7.43;;;4.65;;
51272;SDS011;37345;59.828;30.328;2022-07-21T13:05:22;7.35;;;4.15;;
51272;SDS011;37345;59.828;30.328;2022-07-21T13:07:54;4.93;;;4.30;;
51272;SDS011;37345;59.828;30.328;2022-07-21T13:10:21;6.60;;;4.57;;
51272;SDS011;37345;59.828;30.328;2022-07-21T13:12:47;4.82;;;4.20;;
51272;SDS011;37345;59.828;30.328;2022-07-21T13:15:13;6.72;;;4.50;;
51272;SDS011;37345;59.828;30.328;2022-07-21T13:17:39;8.68;;;4.47;;
51272;SDS011;37345;59.828;30.328;2022-07-21T13:20:05;8.23;;;4.90;;
51272;SDS011;37345;59.828;30.328;2022-07-21T13:22:32;6.63;;;5.03;;
51272;SDS011;37345;59.828;30.328;2022-07-21T13:24:58;7.43;;;4.60;;
51272;SDS011;37345;59.828;30.328;2022-07-21T13:27:24;7.50;;;4.50;;
51272;SDS011;37345;59.828;30.328;2022-07-21T13:29:51;8.37;;;4.97;;
51272;SDS011;37345;59.828;30.328;2022-07-21T13:32:17;9.02;;;5.05;;
51272;SDS011;37345;59.828;30.328;2022-07-21T13:34:43;5.35;;;4.78;;
51272;SDS011;37345;59.828;30.328;2022-07-21T13:37:09;6.38;;;4.53;;
51272;SDS011;37345;59.828;30.328;2022-07-21T13:39:39;6.47;;;4.68;;
51272;SDS011;37345;59.828;30.328;2022-07-21T13:42:06;6.75;;;4.55;;
51272;SDS011;37345;59.828;30.328;2022-07-21T13:44:33;7.28;;;4.40;;
51272;SDS011;37345;59.828;30.328;2022-07-21T13:46:59;5.18;;;4.35;;
51272;SDS011;37345;59.828;30.328;2022-07-21T13:49:26;5.95;;;4.57;;
51272;SDS011;37345;59.828;30.328;2022-07-21T13:51:51;7.50;;;4.90;;
51272;SDS011;37345;59.828;30.328;2022-07-21T13:54:18;7.20;;;4.63;;
51272;SDS011;37345;59.828;30.328;2022-07-21T13:56:45;6.07;;;4.82;;
51272;SDS011;37345;59.828;30.328;2022-07-21T13:59:11;8.75;;;4.78;;
51272;SDS011;37345;59.828;30.328;2022-07-21T14:01:40;5.30;;;4.40;;
51272;SDS011;37345;59.828;30.328;2022-07-21T14:04:06;6.47;;;4.97;;
51272;SDS011;37345;59.828;30.328;2022-07-21T14:06:32;7.22;;;5.30;;
51272;SDS011;37345;59.828;30.328;2022-07-21T14:08:58;5.72;;;4.25;;
51272;SDS011;37345;59.828;30.328;2022-07-21T14:11:24;8.18;;;4.97;;
51272;SDS011;37345;59.828;30.328;2022-07-21T14:13:53;9.27;;;4.90;;
51272;SDS011;37345;59.828;30.328;2022-07-21T14:16:19;7.25;;;4.88;;
51272;SDS011;37345;59.828;30.328;2022-07-21T14:18:45;7.25;;;5.45;;
51272;SDS011;37345;59.828;30.328;2022-07-21T14:21:11;8.23;;;5.05;;
51272;SDS011;37345;59.828;30.328;2022-07-21T14:23:40;6.82;;;5.30;;
51272;SDS011;37345;59.828;30.328;2022-07-21T14:26:06;9.45;;;5.53;;
51272;SDS011;37345;59.828;30.328;2022-07-21T14:28:32;7.30;;;5.05;;
51272;SDS011;37345;59.828;30.328;2022-07-21T14:31:01;8.40;;;4.80;;
51272;SDS011;37345;59.828;30.328;2022-07-21T14:33:27;5.93;;;4.77;;
51272;SDS011;37345;59.828;30.328;2022-07-21T14:35:55;6.80;;;4.93;;
51272;SDS011;37345;59.828;30.328;2022-07-21T14:38:21;6.95;;;5.22;;
51272;SDS011;37345;59.828;30.328;2022-07-21T14:40:47;8.68;;;5.15;;
51272;SDS011;37345;59.828;30.328;2022-07-21T14:43:13;8.45;;;5.07;;
51272;SDS011;37345;59.828;30.328;2022-07-21T14:45:39;8.38;;;5.47;;
51272;SDS011;37345;59.828;30.328;2022-07-21T14:48:05;7.15;;;4.60;;
51272;SDS011;37345;59.828;30.328;2022-07-21T14:50:33;8.73;;;5.40;;
51272;SDS011;37345;59.828;30.328;2022-07-21T14:52:59;7.47;;;4.93;;
51272;SDS011;37345;59.828;30.328;2022-07-21T14:55:26;8.30;;;5.40;;
51272;SDS011;37345;59.828;30.328;2022-07-21T14:57:53;7.80;;;4.82;;
51272;SDS011;37345;59.828;30.328;2022-07-21T15:00:20;8.18;;;5.20;;
51272;SDS011;37345;59.828;30.328;2022-07-21T15:02:48;7.40;;;5.40;;
51272;SDS011;37345;59.828;30.328;2022-07-21T15:05:14;6.78;;;5.63;;
51272;SDS011;37345;59.828;30.328;2022-07-21T15:07:40;5.93;;;4.85;;
51272;SDS011;37345;59.828;30.328;2022-07-21T15:10:07;8.57;;;5.53;;
51272;SDS011;37345;59.828;30.328;2022-07-21T15:12:33;8.32;;;5.40;;